Time,TemperatureF,DewpointF,PressureIn,WindDirection,WindDirectionDegrees,WindSpeedMPH,WindSpeedGustMPH,Humidity,HourlyPrecipIn,Conditions,Clouds,dailyrainin,SoftwareType,DateUTC
2013-07-24 00:01:00,70.0,37.0,-100.00,WSW,256,1.0,1.0,30,0.00,,,0.00,,2013-07-24 06:01:00,
2013-07-24 00:11:00,70.0,37.0,-100.00,WSW,256,1.0,1.0,30,0.00,,,0.00,,2013-07-24 06:11:00,
2013-07-24 00:30:00,64.0,36.0,-100.00,ENE,66,2.0,2.0,34,0.00,,,0.00,,2013-07-24 06:30:00,
2013-07-24 00:34:00,67.0,40.0,-100.00,WSW,251,0.0,0.0,37,0.00,,,0.00,,2013-07-24 06:34:00,
2013-07-24 00:53:00,64.0,36.0,-100.00,ENE,66,2.0,2.0,34,0.00,,,0.00,,2013-07-24 06:53:00,
2013-07-24 01:01:00,64.0,36.0,-100.00,ENE,66,2.0,2.0,34,0.00,,,0.00,,2013-07-24 07:01:00,
2013-07-24 01:12:00,64.0,36.0,-100.00,ENE,66,2.0,2.0,34,0.00,,,0.00,,2013-07-24 07:12:00,
2013-07-24 01:22:00,64.0,36.0,-100.00,ENE,66,2.0,2.0,34,0.00,,,0.00,,2013-07-24 07:22:00,
2013-07-24 01:43:00,62.0,40.0,-100.00,SE,128,1.0,1.0,43,0.00,,,0.00,,2013-07-24 07:43:00,
2013-07-24 01:53:00,62.0,40.0,-100.00,SE,128,1.0,1.0,43,0.00,,,0.00,,2013-07-24 07:53:00,
2013-07-24 02:02:00,62.0,40.0,-100.00,SE,128,1.0,1.0,43,0.00,,,0.00,,2013-07-24 08:02:00,
2013-07-24 02:22:00,66.0,36.0,-100.00,NNE,30,1.0,4.0,32,0.00,,,0.00,,2013-07-24 08:22:00,
2013-07-24 02:32:00,66.0,36.0,-100.00,NNE,30,1.0,4.0,32,0.00,,,0.00,,2013-07-24 08:32:00,
2013-07-24 02:42:00,63.0,37.0,-100.00,East,82,0.0,1.0,39,0.00,,,0.00,,2013-07-24 08:42:00,
2013-07-24 02:52:00,62.0,37.0,-100.00,ESE,104,0.0,1.0,40,0.00,,,0.00,,2013-07-24 08:52:00,
2013-07-24 03:02:00,62.0,37.0,-100.00,ESE,104,0.0,1.0,40,0.00,,,0.00,,2013-07-24 09:02:00,
2013-07-24 03:22:00,61.0,38.0,-100.00,ESE,102,0.0,1.0,42,0.00,,,0.00,,2013-07-24 09:22:00,
2013-07-24 03:32:00,61.0,38.0,-100.00,ESE,102,0.0,1.0,42,0.00,,,0.00,,2013-07-24 09:32:00,
2013-07-24 03:43:00,60.0,37.0,-100.00,East,100,0.0,0.0,42,0.00,,,0.00,,2013-07-24 09:43:00,
2013-07-24 03:53:00,60.0,37.0,-100.00,East,100,0.0,0.0,42,0.00,,,0.00,,2013-07-24 09:53:00,
2013-07-24 04:01:00,60.0,37.0,-100.00,East,100,0.0,0.0,42,0.00,,,0.00,,2013-07-24 10:01:00,
2013-07-24 04:22:00,60.0,39.0,-100.00,ENE,73,0.0,0.0,45,0.00,,,0.00,,2013-07-24 10:22:00,
2013-07-24 04:32:00,60.0,39.0,-100.00,ENE,73,0.0,0.0,45,0.00,,,0.00,,2013-07-24 10:32:00,
2013-07-24 04:43:00,63.0,39.0,-100.00,SW,222,0.0,2.0,40,0.00,,,0.00,,2013-07-24 10:43:00,
2013-07-24 04:53:00,63.0,39.0,-100.00,SW,222,0.0,2.0,40,0.00,,,0.00,,2013-07-24 10:53:00,
2013-07-24 05:02:00,63.0,39.0,-100.00,SW,222,0.0,2.0,40,0.00,,,0.00,,2013-07-24 11:02:00,
2013-07-24 05:22:00,59.0,40.0,-100.00,ENE,62,0.0,0.0,48,0.00,,,0.00,,2013-07-24 11:22:00,
2013-07-24 05:32:00,59.0,40.0,-100.00,ENE,62,0.0,0.0,48,0.00,,,0.00,,2013-07-24 11:32:00,
2013-07-24 05:43:00,58.0,39.0,-100.00,ESE,107,1.0,2.0,50,0.00,,,0.00,,2013-07-24 11:43:00,
2013-07-24 05:52:00,58.0,39.0,-100.00,ESE,107,1.0,2.0,50,0.00,,,0.00,,2013-07-24 11:52:00,
2013-07-24 06:01:00,58.0,39.0,-100.00,ESE,107,1.0,2.0,50,0.00,,,0.00,,2013-07-24 12:01:00,
2013-07-24 06:22:00,57.0,38.0,-100.00,ESE,102,1.0,1.0,49,0.00,,,0.00,,2013-07-24 12:22:00,
2013-07-24 06:32:00,57.0,38.0,-100.00,ESE,102,1.0,1.0,49,0.00,,,0.00,,2013-07-24 12:32:00,
2013-07-24 06:42:00,57.0,38.0,-100.00,ESE,102,1.0,1.0,49,0.00,,,0.00,,2013-07-24 12:42:00,
2013-07-24 07:02:00,58.0,38.0,-100.00,East,96,1.0,2.0,47,0.00,,,0.00,,2013-07-24 13:02:00,
2013-07-24 07:12:00,58.0,38.0,-100.00,East,96,1.0,2.0,47,0.00,,,0.00,,2013-07-24 13:12:00,
2013-07-24 07:22:00,58.0,38.0,-100.00,East,96,1.0,2.0,47,0.00,,,0.00,,2013-07-24 13:22:00,
2013-07-24 07:32:00,57.0,39.0,-100.00,ENE,66,2.0,2.0,50,0.00,,,0.00,,2013-07-24 13:32:00,
2013-07-24 07:43:00,57.0,39.0,-100.00,ENE,66,2.0,2.0,50,0.00,,,0.00,,2013-07-24 13:43:00,
2013-07-24 07:53:00,57.0,39.0,-100.00,ENE,66,2.0,2.0,50,0.00,,,0.00,,2013-07-24 13:53:00,
2013-07-24 08:12:00,60.0,42.0,-100.00,ENE,58,1.0,2.0,52,0.00,,,0.00,,2013-07-24 14:12:00,
2013-07-24 08:22:00,60.0,42.0,-100.00,ENE,58,1.0,2.0,52,0.00,,,0.00,,2013-07-24 14:22:00,
2013-07-24 08:32:00,62.0,42.0,-100.00,West,272,3.0,5.0,46,0.00,,,0.00,,2013-07-24 14:32:00,
2013-07-24 08:43:00,63.0,47.0,-100.00,East,80,3.0,4.0,57,0.00,,,0.00,,2013-07-24 14:43:00,
2013-07-24 08:55:00,63.0,47.0,-100.00,East,80,3.0,4.0,57,0.00,,,0.00,,2013-07-24 14:55:00,
2013-07-24 09:12:00,63.0,45.0,-100.00,East,80,1.0,2.0,52,0.00,,,0.00,,2013-07-24 15:12:00,
2013-07-24 09:22:00,63.0,45.0,-100.00,East,80,1.0,2.0,52,0.00,,,0.00,,2013-07-24 15:22:00,
2013-07-24 09:32:00,66.0,48.0,-100.00,ENE,76,2.0,3.0,52,0.00,,,0.00,,2013-07-24 15:32:00,
2013-07-24 09:43:00,66.0,48.0,-100.00,ENE,76,2.0,3.0,52,0.00,,,0.00,,2013-07-24 15:43:00,
2013-07-24 10:12:00,70.0,47.0,-100.00,ESE,102,2.0,4.0,44,0.00,,,0.00,,2013-07-24 16:12:00,
2013-07-24 10:32:00,75.0,41.0,-100.00,NNE,27,2.0,3.0,29,0.00,,,0.00,,2013-07-24 16:32:00,
2013-07-24 10:43:00,75.0,41.0,-100.00,NNE,27,2.0,3.0,29,0.00,,,0.00,,2013-07-24 16:43:00,
2013-07-24 10:53:00,75.0,41.0,-100.00,NNE,27,2.0,3.0,29,0.00,,,0.00,,2013-07-24 16:53:00,
2013-07-24 11:12:00,78.0,38.0,-100.00,NNE,28,1.0,2.0,24,0.00,,,0.00,,2013-07-24 17:12:00,
2013-07-24 11:22:00,78.0,38.0,-100.00,NNE,28,1.0,2.0,24,0.00,,,0.00,,2013-07-24 17:22:00,
2013-07-24 11:30:00,81.0,43.0,-100.00,WSW,254,2.0,4.0,27,0.00,,,0.00,,2013-07-24 17:30:00,
2013-07-24 12:02:00,81.0,43.0,-100.00,WSW,254,2.0,4.0,27,0.00,,,0.00,,2013-07-24 18:02:00,
2013-07-24 12:12:00,81.0,43.0,-100.00,WSW,254,2.0,4.0,27,0.00,,,0.00,,2013-07-24 18:12:00,
2013-07-24 12:22:00,81.0,43.0,-100.00,WSW,254,2.0,4.0,27,0.00,,,0.00,,2013-07-24 18:22:00,
2013-07-24 12:30:00,83.0,35.0,-100.00,West,275,5.0,10.0,18,0.00,,,0.00,,2013-07-24 18:30:00,
2013-07-24 13:02:00,83.0,35.0,-100.00,West,275,5.0,10.0,18,0.00,,,0.00,,2013-07-24 19:02:00,
2013-07-24 13:12:00,83.0,35.0,-100.00,West,275,5.0,10.0,18,0.00,,,0.00,,2013-07-24 19:12:00,
2013-07-24 13:22:00,83.0,35.0,-100.00,West,275,5.0,10.0,18,0.00,,,0.00,,2013-07-24 19:22:00,
2013-07-24 13:43:00,86.0,34.0,-100.00,West,260,4.0,6.0,15,0.00,,,0.00,,2013-07-24 19:43:00,
2013-07-24 13:53:00,86.0,34.0,-100.00,West,260,4.0,6.0,15,0.00,,,0.00,,2013-07-24 19:53:00,
2013-07-24 14:02:00,86.0,33.0,-100.00,West,268,4.0,6.0,15,0.00,,,0.00,,2013-07-24 20:02:00,
2013-07-24 14:13:00,86.0,33.0,-100.00,West,268,4.0,6.0,15,0.00,,,0.00,,2013-07-24 20:13:00,
2013-07-24 14:32:00,87.0,30.0,-100.00,West,281,5.0,11.0,13,0.00,,,0.00,,2013-07-24 20:32:00,
2013-07-24 14:43:00,87.0,30.0,-100.00,West,281,5.0,11.0,13,0.00,,,0.00,,2013-07-24 20:43:00,
2013-07-24 14:53:00,87.0,30.0,-100.00,West,281,5.0,11.0,13,0.00,,,0.00,,2013-07-24 20:53:00,
2013-07-24 15:02:00,87.0,30.0,-100.00,WSW,251,3.0,7.0,13,0.00,,,0.00,,2013-07-24 21:02:00,
2013-07-24 15:12:00,87.0,30.0,-100.00,WSW,251,3.0,7.0,13,0.00,,,0.00,,2013-07-24 21:12:00,
2013-07-24 15:22:00,87.0,30.0,-100.00,WSW,251,3.0,7.0,13,0.00,,,0.00,,2013-07-24 21:22:00,
2013-07-24 15:32:00,86.0,33.0,-100.00,NNE,14,3.0,5.0,15,0.00,,,0.00,,2013-07-24 21:32:00,
2013-07-24 15:44:00,86.0,33.0,-100.00,NNE,14,3.0,5.0,15,0.00,,,0.00,,2013-07-24 21:44:00,
2013-07-24 15:52:00,86.0,33.0,-100.00,NNE,14,3.0,5.0,15,0.00,,,0.00,,2013-07-24 21:52:00,
2013-07-24 16:02:00,89.0,34.0,-100.00,ESE,103,1.0,3.0,14,0.00,,,0.00,,2013-07-24 22:02:00,
2013-07-24 16:12:00,89.0,34.0,-100.00,ESE,103,1.0,3.0,14,0.00,,,0.00,,2013-07-24 22:12:00,
2013-07-24 16:22:00,89.0,34.0,-100.00,ESE,103,1.0,3.0,14,0.00,,,0.00,,2013-07-24 22:22:00,
2013-07-24 16:43:00,88.0,33.0,-100.00,West,272,3.0,7.0,14,0.00,,,0.00,,2013-07-24 22:43:00,
2013-07-24 16:53:00,88.0,33.0,-100.00,West,272,3.0,7.0,14,0.00,,,0.00,,2013-07-24 22:53:00,
2013-07-24 17:43:00,86.0,34.0,-100.00,NE,41,1.0,3.0,15,0.00,,,0.00,,2013-07-24 23:43:00,
2013-07-24 17:52:00,86.0,34.0,-100.00,NE,41,1.0,3.0,15,0.00,,,0.00,,2013-07-24 23:52:00,
2013-07-24 18:12:00,88.0,34.0,-100.00,WNW,298,1.0,4.0,15,0.00,,,0.00,,2013-07-25 00:12:00,
2013-07-24 18:32:00,87.0,34.0,-100.00,SSE,167,1.0,3.0,15,0.00,,,0.00,,2013-07-25 00:32:00,
2013-07-24 18:43:00,89.0,34.0,-100.00,NNE,30,2.0,4.0,14,0.00,,,0.00,,2013-07-25 00:43:00,
2013-07-24 18:53:00,89.0,34.0,-100.00,NNE,30,2.0,4.0,14,0.00,,,0.00,,2013-07-25 00:53:00,
2013-07-24 19:01:00,89.0,34.0,-100.00,NNE,30,2.0,4.0,14,0.00,,,0.00,,2013-07-25 01:01:00,
2013-07-24 19:12:00,87.0,35.0,-100.00,NE,45,2.0,4.0,16,0.00,,,0.00,,2013-07-25 01:12:00,
2013-07-24 19:32:00,88.0,37.0,-100.00,ENE,61,4.0,6.0,16,0.00,,,0.00,,2013-07-25 01:32:00,
2013-07-24 19:53:00,87.0,39.0,-100.00,ESE,106,0.0,2.0,18,0.00,,,0.00,,2013-07-25 01:53:00,
2013-07-24 20:02:00,87.0,39.0,-100.00,ESE,106,0.0,2.0,18,0.00,,,0.00,,2013-07-25 02:02:00,
2013-07-24 20:12:00,87.0,39.0,-100.00,ESE,106,0.0,2.0,18,0.00,,,0.00,,2013-07-25 02:12:00,
2013-07-24 22:22:00,70.0,41.0,-100.00,WNW,284,0.0,0.0,35,0.00,,,0.00,,2013-07-25 04:22:00,
2013-07-24 22:32:00,70.0,41.0,-100.00,WNW,284,0.0,0.0,35,0.00,,,0.00,,2013-07-25 04:32:00,
2013-07-24 22:43:00,68.0,40.0,-100.00,NE,37,0.0,0.0,35,0.00,,,0.00,,2013-07-25 04:43:00,
2013-07-24 22:53:00,68.0,40.0,-100.00,NE,37,0.0,0.0,35,0.00,,,0.00,,2013-07-25 04:53:00,
2013-07-24 23:01:00,68.0,40.0,-100.00,NE,37,0.0,0.0,35,0.00,,,0.00,,2013-07-25 05:01:00,
2013-07-24 23:12:00,68.0,40.0,-100.00,NE,37,0.0,0.0,35,0.00,,,0.00,,2013-07-25 05:12:00,
2013-07-24 23:22:00,69.0,38.0,-100.00,West,260,1.0,2.0,33,0.00,,,0.00,,2013-07-25 05:22:00,
2013-07-24 23:32:00,69.0,38.0,-100.00,West,260,1.0,2.0,33,0.00,,,0.00,,2013-07-25 05:32:00,
2013-07-24 23:52:00,66.0,38.0,-100.00,SW,230,0.0,0.0,37,0.00,,,0.00,,2013-07-25 05:52:00,